createdAt,value
2023-05-03T00:01:34.607Z,63.38
2023-05-03T00:04:23.214Z,63.71
2023-05-03T00:07:08.428Z,64.14
2023-05-03T00:09:53.837Z,64.17
2023-05-03T00:12:40.466Z,64.94
2023-05-03T00:15:25.641Z,65.81
2023-05-03T00:18:10.953Z,66.72
2023-05-03T00:20:56.543Z,67.01
2023-05-03T00:23:42.555Z,66.65
2023-05-03T00:26:28.356Z,66.75
2023-05-03T00:29:13.927Z,66.82
2023-05-03T00:31:59.427Z,67.17
2023-05-03T00:34:45.704Z,67.21
2023-05-03T00:37:30.927Z,66.92
2023-05-03T00:40:16.103Z,68.23
2023-05-03T00:43:01.194Z,68.16
2023-05-03T00:45:47.196Z,67.59
2023-05-03T00:48:34.078Z,67.41
2023-05-03T00:51:21.398Z,67.78
2023-05-03T00:54:07.425Z,68.14
2023-05-03T00:56:52.897Z,66.79
2023-05-03T00:59:38.245Z,67.72
2023-05-03T01:02:23.475Z,67.86
2023-05-03T01:05:09.356Z,67.99
2023-05-03T01:08:29.504Z,67.97
2023-05-03T01:11:22.642Z,68.74
2023-05-03T01:14:30.996Z,69.54
2023-05-03T01:17:17.010Z,68.66
2023-05-03T01:20:06.970Z,68.63
2023-05-03T01:23:05.218Z,68.37
2023-05-03T01:25:52.649Z,66.73
2023-05-03T01:28:37.786Z,71.01
2023-05-03T01:31:43.792Z,71.02
2023-05-03T01:34:39.970Z,69.75
2023-05-03T01:37:28.095Z,69.76
2023-05-03T01:40:15.726Z,69.47
2023-05-03T01:43:02.928Z,70.79
2023-05-03T01:45:48.633Z,69.99
2023-05-03T01:48:33.842Z,69.12
2023-05-03T01:51:18.939Z,68.40
2023-05-03T01:54:04.655Z,67.95
2023-05-03T01:56:49.963Z,68.21
2023-05-03T01:59:35.112Z,68.30
2023-05-03T02:02:20.242Z,68.31
2023-05-03T02:05:06.183Z,68.21
2023-05-03T02:07:52.620Z,69.61
2023-05-03T02:10:37.777Z,71.06
2023-05-03T02:13:22.934Z,71.44
2023-05-03T02:16:08.491Z,72.11
2023-05-03T02:18:53.553Z,71.33
2023-05-03T02:21:39.192Z,70.42
2023-05-03T02:24:24.386Z,71.06
2023-05-03T02:27:10.392Z,70.80
2023-05-03T02:29:56.178Z,69.46
2023-05-03T02:32:42.158Z,69.39
2023-05-03T02:35:27.400Z,68.43
2023-05-03T02:38:13.037Z,68.59
2023-05-03T02:40:58.180Z,69.24
2023-05-03T02:43:43.607Z,71.51
2023-05-03T02:46:28.752Z,69.95
2023-05-03T02:49:14.099Z,71.25
2023-05-03T02:51:59.469Z,71.50
2023-05-03T02:54:45.040Z,71.74
2023-05-03T02:57:31.326Z,70.69
2023-05-03T03:00:16.642Z,71.36
2023-05-03T03:03:01.965Z,71.43
2023-05-03T03:05:47.458Z,72.01
2023-05-03T03:08:34.158Z,72.22
2023-05-03T03:11:21.746Z,71.75
2023-05-03T03:14:06.964Z,70.73
2023-05-03T03:16:52.137Z,70.91
2023-05-03T03:19:37.429Z,71.35
2023-05-03T03:22:22.630Z,71.34
2023-05-03T03:25:09.645Z,70.63
2023-05-03T03:27:55.188Z,70.98
2023-05-03T03:30:40.960Z,70.12
2023-05-03T03:33:36.316Z,69.44
2023-05-03T03:36:28.327Z,70.10
2023-05-03T03:39:13.939Z,70.31
2023-05-03T03:42:00.672Z,70.13
2023-05-03T03:44:46.304Z,70.25
2023-05-03T03:47:32.759Z,69.77
2023-05-03T03:50:17.800Z,70.01
2023-05-03T03:53:03.284Z,70.31
2023-05-03T03:55:48.938Z,71.37
2023-05-03T03:58:36.382Z,70.78
2023-05-03T04:01:24.125Z,71.05
2023-05-03T04:04:09.393Z,72.40
2023-05-03T04:06:54.947Z,73.55
2023-05-03T04:09:43.292Z,74.93
2023-05-03T04:12:28.422Z,73.68
2023-05-03T04:15:13.720Z,74.11
2023-05-03T04:18:00.254Z,73.93
2023-05-03T04:20:45.805Z,72.71
2023-05-03T04:23:32.673Z,71.75
2023-05-03T04:26:30.500Z,71.73
2023-05-03T04:29:21.514Z,70.75
2023-05-03T04:32:07.705Z,69.54
2023-05-03T04:34:54.724Z,71.43
2023-05-03T04:37:42.227Z,69.98
2023-05-03T04:40:30.506Z,70.27
2023-05-03T04:43:23.274Z,71.14
2023-05-03T04:46:09.295Z,71.30
2023-05-03T04:48:54.894Z,72.09
2023-05-03T04:51:40.554Z,73.76
2023-05-03T04:54:26.731Z,72.28
2023-05-03T04:57:12.074Z,72.11
2023-05-03T04:59:58.162Z,72.92
2023-05-03T05:02:43.535Z,71.87
2023-05-03T05:05:29.558Z,70.11
2023-05-03T05:08:17.235Z,69.56
2023-05-03T05:11:08.361Z,69.38
2023-05-03T05:13:53.389Z,70.02
2023-05-03T05:16:38.656Z,69.15
2023-05-03T05:19:24.925Z,68.72
2023-05-03T05:22:10.060Z,64.58
2023-05-03T05:25:01.857Z,62.00
2023-05-03T05:27:47.647Z,62.66
2023-05-03T05:30:33.653Z,61.60
2023-05-03T05:33:20.397Z,60.75
2023-05-03T05:36:07.739Z,61.90
2023-05-03T05:38:53.488Z,62.74
2023-05-03T05:41:39.120Z,61.55
2023-05-03T05:44:24.392Z,61.79
2023-05-03T05:47:10.247Z,62.03
2023-05-03T05:49:55.653Z,64.16
2023-05-03T05:52:40.734Z,64.66
2023-05-03T05:55:25.938Z,62.94
2023-05-03T05:58:12.655Z,59.60
2023-05-03T06:01:03.421Z,60.75
2023-05-03T06:03:50.609Z,64.90
2023-05-03T06:06:36.917Z,64.25
2023-05-03T06:09:24.625Z,65.61
2023-05-03T06:12:14.609Z,65.40
2023-05-03T06:15:03.122Z,65.89
2023-05-03T06:17:54.225Z,64.80
2023-05-03T06:20:39.864Z,64.31
2023-05-03T06:23:25.173Z,62.37
2023-05-03T06:26:11.644Z,62.88
2023-05-03T06:28:57.495Z,60.73
2023-05-03T06:31:43.152Z,60.45
2023-05-03T06:34:30.045Z,60.37
2023-05-03T06:37:17.201Z,59.91
2023-05-03T06:40:03.516Z,58.53
2023-05-03T06:42:49.232Z,58.12
2023-05-03T06:45:42.767Z,59.05
2023-05-03T06:48:28.253Z,56.59
2023-05-03T06:51:13.605Z,56.08
2023-05-03T06:54:01.017Z,55.49
2023-05-03T06:56:46.137Z,52.35
2023-05-03T06:59:31.705Z,52.93
2023-05-03T07:02:17.893Z,52.62
2023-05-03T07:05:03.502Z,52.07
2023-05-03T07:07:48.762Z,51.77
2023-05-03T07:10:34.239Z,53.01
2023-05-03T07:13:19.666Z,51.31
2023-05-03T07:16:05.686Z,52.28
2023-05-03T07:18:51.270Z,52.23
2023-05-03T07:21:36.704Z,53.44
2023-05-03T07:24:21.772Z,48.12
2023-05-03T07:27:07.468Z,49.83
2023-05-03T07:29:52.960Z,53.31
2023-05-03T07:32:38.845Z,52.51
2023-05-03T07:35:24.357Z,53.09
2023-05-03T07:38:09.943Z,56.93
2023-05-03T07:40:55.316Z,53.88
2023-05-03T07:43:41.250Z,51.49
2023-05-03T07:46:26.833Z,53.97
2023-05-03T07:49:12.456Z,51.77
2023-05-03T07:51:58.715Z,52.40
2023-05-03T07:54:44.147Z,47.60
2023-05-03T07:57:29.370Z,49.76
2023-05-03T08:00:15.048Z,50.76
2023-05-03T08:03:00.502Z,47.42
2023-05-03T08:05:46.126Z,47.74
2023-05-03T08:08:31.293Z,50.80
2023-05-03T08:11:16.835Z,48.04
2023-05-03T08:14:02.018Z,48.05
2023-05-03T08:16:47.172Z,48.14
2023-05-03T08:19:32.316Z,48.85
2023-05-03T08:22:17.873Z,51.20
2023-05-03T08:25:06.327Z,52.93
2023-05-03T08:27:52.698Z,47.13
2023-05-03T08:30:37.936Z,50.74
2023-05-03T08:33:23.296Z,49.02
2023-05-03T08:36:08.749Z,47.40
2023-05-03T08:38:54.249Z,47.21
2023-05-03T08:41:39.680Z,48.77
2023-05-03T08:44:28.972Z,46.14
2023-05-03T08:47:15.783Z,45.77
2023-05-03T08:50:03.640Z,46.97
2023-05-03T08:52:49.225Z,47.58
2023-05-03T08:55:34.726Z,48.87
2023-05-03T08:58:19.826Z,48.50
2023-05-03T09:01:09.169Z,49.40
2023-05-03T09:03:54.706Z,46.78
2023-05-03T09:06:40.126Z,46.63
2023-05-03T09:09:31.698Z,48.40
2023-05-03T09:12:38.069Z,49.18
2023-05-03T09:15:23.469Z,48.88
2023-05-03T09:18:19.749Z,46.98
2023-05-03T09:21:05.536Z,44.83
2023-05-03T09:23:50.668Z,46.64
2023-05-03T09:26:37.406Z,45.26
2023-05-03T09:29:30.396Z,49.53
2023-05-03T09:32:16.793Z,44.79
2023-05-03T09:35:11.827Z,46.86
2023-05-03T09:37:56.959Z,44.35
2023-05-03T09:40:48.183Z,45.34
2023-05-03T09:43:34.297Z,47.52
2023-05-03T09:46:19.745Z,45.47
2023-05-03T09:49:05.145Z,43.01
2023-05-03T09:51:50.646Z,45.03
2023-05-03T09:54:36.124Z,46.57
2023-05-03T09:57:21.811Z,45.98
2023-05-03T10:00:07.894Z,46.59
2023-05-03T10:03:01.152Z,44.02
2023-05-03T10:05:48.904Z,45.76
2023-05-03T10:08:46.003Z,43.45
2023-05-03T10:11:34.404Z,43.82
2023-05-03T10:14:25.691Z,42.55
2023-05-03T10:17:29.086Z,44.04
2023-05-03T10:20:55.075Z,42.83
2023-05-03T10:24:12.411Z,43.88
2023-05-03T10:26:58.421Z,43.56
2023-05-03T10:29:47.328Z,42.46
2023-05-03T10:32:38.690Z,39.23
2023-05-03T10:35:28.708Z,44.51
2023-05-03T10:38:16.619Z,42.24
2023-05-03T10:41:01.757Z,40.02
2023-05-03T10:43:47.005Z,42.21
2023-05-03T10:46:34.350Z,43.21
2023-05-03T10:49:21.854Z,43.98
2023-05-03T10:52:46.119Z,43.22
2023-05-03T10:55:32.517Z,43.17
2023-05-03T10:58:18.050Z,40.93
2023-05-03T11:01:05.361Z,43.72
2023-05-03T11:04:06.209Z,39.21
2023-05-03T11:06:52.044Z,41.57
2023-05-03T11:09:37.741Z,42.55
2023-05-03T11:12:23.347Z,43.71
2023-05-03T11:15:09.192Z,41.74
2023-05-03T11:17:54.493Z,45.18
2023-05-03T11:20:40.505Z,43.50
2023-05-03T11:23:28.077Z,43.43
2023-05-03T11:26:13.697Z,43.12
2023-05-03T11:28:59.019Z,43.77
2023-05-03T11:31:44.484Z,41.92
2023-05-03T11:34:29.975Z,41.37
2023-05-03T11:37:16.022Z,40.02
2023-05-03T11:40:02.041Z,42.55
2023-05-03T11:43:13.991Z,43.64
2023-05-03T11:45:59.671Z,43.14
2023-05-03T11:48:45.220Z,44.77
2023-05-03T11:51:30.691Z,40.96
2023-05-03T11:54:25.383Z,42.37
2023-05-03T11:57:13.496Z,39.77
2023-05-03T12:00:20.194Z,40.94
2023-05-03T12:03:06.243Z,41.95
2023-05-03T12:05:53.054Z,42.17
2023-05-03T12:08:41.788Z,43.00
2023-05-03T12:11:32.247Z,41.68
2023-05-03T12:14:20.536Z,40.87
2023-05-03T12:17:07.487Z,41.43
2023-05-03T12:19:54.464Z,42.08
2023-05-03T12:22:40.723Z,43.93
2023-05-03T12:25:28.344Z,40.62
2023-05-03T12:28:20.796Z,43.83
2023-05-03T12:31:06.834Z,40.80
2023-05-03T12:36:43.412Z,43.74
2023-05-03T12:39:32.384Z,40.13
2023-05-03T12:42:22.159Z,42.50
2023-05-03T12:47:57.702Z,38.69
2023-05-03T12:50:45.455Z,40.84
2023-05-03T12:53:31.505Z,42.95
2023-05-03T12:56:17.009Z,40.04
2023-05-03T12:59:35.155Z,41.25
2023-05-03T13:05:00.802Z,41.44
2023-05-03T13:10:33.581Z,39.16
2023-05-03T13:13:19.121Z,40.97
2023-05-03T13:16:04.975Z,41.27
2023-05-03T13:18:50.109Z,40.96
2023-05-03T13:21:35.713Z,41.91
2023-05-03T13:24:20.885Z,38.69
2023-05-03T13:27:06.752Z,41.46
2023-05-03T13:29:51.954Z,40.43
2023-05-03T13:32:37.497Z,39.54
2023-05-03T13:35:22.695Z,38.31
2023-05-03T13:38:08.469Z,40.45
2023-05-03T13:40:54.516Z,38.63
2023-05-03T13:43:40.190Z,40.24
2023-05-03T13:46:25.590Z,40.74
2023-05-03T13:49:10.945Z,37.58
2023-05-03T13:51:56.342Z,37.87
2023-05-03T13:54:41.539Z,40.66
2023-05-03T13:57:27.061Z,40.43
2023-05-03T14:00:12.838Z,39.14
2023-05-03T14:02:58.509Z,39.34
2023-05-03T14:05:43.853Z,40.39
2023-05-03T14:08:29.471Z,38.13
2023-05-03T14:14:17.263Z,39.12
2023-05-03T14:17:04.440Z,37.52
2023-05-03T14:19:50.302Z,37.08
2023-05-03T14:22:36.782Z,40.31
2023-05-03T14:25:41.967Z,39.30
2023-05-03T14:28:27.620Z,39.34
2023-05-03T14:31:14.380Z,38.93
2023-05-03T14:34:01.213Z,38.48
2023-05-03T14:36:46.576Z,38.03
2023-05-03T14:39:31.854Z,37.87
2023-05-03T14:42:16.913Z,38.59
2023-05-03T14:45:02.524Z,39.85
2023-05-03T14:47:47.862Z,38.74
2023-05-03T14:50:33.280Z,38.67
2023-05-03T14:53:18.959Z,39.16
2023-05-03T14:56:04.574Z,42.43
2023-05-03T14:58:50.182Z,40.78
2023-05-03T15:01:35.600Z,39.52
2023-05-03T15:04:21.070Z,38.85
2023-05-03T15:07:06.548Z,39.48
2023-05-03T15:09:51.926Z,39.96
2023-05-03T15:12:37.938Z,41.03
2023-05-03T15:15:23.312Z,41.92
2023-05-03T15:18:09.248Z,40.20
2023-05-03T15:20:54.213Z,41.68
2023-05-03T15:23:39.432Z,41.00
2023-05-03T15:26:24.700Z,42.37
2023-05-03T15:29:10.743Z,43.28
2023-05-03T15:31:56.043Z,41.53
2023-05-03T15:34:41.484Z,42.28
2023-05-03T15:37:34.844Z,43.85
2023-05-03T15:40:20.116Z,44.42
2023-05-03T15:43:05.522Z,42.41
2023-05-03T15:45:51.261Z,44.85
2023-05-03T15:48:36.919Z,41.83
2023-05-03T15:51:22.010Z,42.41
2023-05-03T15:54:07.508Z,42.98
2023-05-03T15:56:53.026Z,42.45
2023-05-03T15:59:38.142Z,43.74
2023-05-03T16:02:23.508Z,40.69
2023-05-03T16:05:09.807Z,41.32
2023-05-03T16:07:54.943Z,39.75
2023-05-03T16:10:40.337Z,40.11
2023-05-03T16:13:25.712Z,40.24
2023-05-03T16:16:11.274Z,40.70
2023-05-03T16:18:56.283Z,40.73
2023-05-03T16:21:41.795Z,42.40
2023-05-03T16:24:26.968Z,43.81
2023-05-03T16:27:12.563Z,42.28
2023-05-03T16:29:58.326Z,43.33
2023-05-03T16:32:43.471Z,43.22
2023-05-03T16:35:28.731Z,43.34
2023-05-03T16:38:13.988Z,45.33
2023-05-03T16:41:00.422Z,46.50
2023-05-03T16:43:45.927Z,44.59
2023-05-03T16:46:35.999Z,46.50
2023-05-03T16:49:21.201Z,45.20
2023-05-03T16:52:06.749Z,46.07
2023-05-03T16:54:52.006Z,44.16
2023-05-03T16:57:38.422Z,43.81
2023-05-03T17:00:23.618Z,43.85
2023-05-03T17:03:12.359Z,44.75
2023-05-03T17:05:59.558Z,44.38
2023-05-03T17:08:45.844Z,44.19
2023-05-03T17:11:31.314Z,45.20
2023-05-03T17:14:16.710Z,44.51
2023-05-03T17:17:01.955Z,44.57
2023-05-03T17:19:47.377Z,45.67
2023-05-03T17:22:32.844Z,45.51
2023-05-03T17:25:18.543Z,45.36
2023-05-03T17:28:03.913Z,46.19
2023-05-03T17:30:49.386Z,46.17
2023-05-03T17:33:35.283Z,46.55
2023-05-03T17:36:22.597Z,46.91
2023-05-03T17:39:07.950Z,47.11
2023-05-03T17:41:53.228Z,46.58
2023-05-03T17:44:38.602Z,46.45
2023-05-03T17:47:24.349Z,47.07
2023-05-03T17:50:11.683Z,47.73
2023-05-03T17:52:57.003Z,48.77
2023-05-03T17:55:42.528Z,48.62
2023-05-03T17:58:27.668Z,49.21
2023-05-03T18:01:13.364Z,49.76
2023-05-03T18:03:59.368Z,49.99
2023-05-03T18:06:44.858Z,49.88
2023-05-03T18:09:30.399Z,49.77
2023-05-03T18:12:15.589Z,50.06
2023-05-03T18:15:01.202Z,50.03
2023-05-03T18:17:46.339Z,49.84
2023-05-03T18:20:31.872Z,50.34
2023-05-03T18:23:17.282Z,50.68
2023-05-03T18:26:02.816Z,50.65
2023-05-03T18:28:48.313Z,50.92
2023-05-03T18:31:33.941Z,51.19
2023-05-03T18:34:19.275Z,51.17
2023-05-03T18:37:05.082Z,51.01
2023-05-03T18:39:50.341Z,50.89
2023-05-03T18:42:36.404Z,51.13
2023-05-03T18:45:21.826Z,51.41
2023-05-03T18:48:08.258Z,51.40
2023-05-03T18:50:53.658Z,50.62
2023-05-03T18:53:38.998Z,50.50
2023-05-03T18:56:24.460Z,50.30
2023-05-03T18:59:09.933Z,50.78
2023-05-03T19:01:55.110Z,51.56
2023-05-03T19:04:43.116Z,52.17
2023-05-03T19:07:28.502Z,53.68
2023-05-03T19:10:15.719Z,54.58
2023-05-03T19:13:00.965Z,54.71
2023-05-03T19:15:46.001Z,55.12
2023-05-03T19:18:31.349Z,54.94
2023-05-03T19:21:16.647Z,53.30
2023-05-03T19:24:01.793Z,53.12
2023-05-03T19:26:47.233Z,53.16
2023-05-03T19:29:32.423Z,53.08
2023-05-03T19:32:17.922Z,53.74
2023-05-03T19:35:03.156Z,53.52
2023-05-03T19:37:48.610Z,53.76
2023-05-03T19:40:33.950Z,54.07
2023-05-03T19:43:19.268Z,54.37
2023-05-03T19:46:05.309Z,54.63
2023-05-03T19:48:51.202Z,55.29
2023-05-03T19:51:36.416Z,55.18
2023-05-03T19:54:22.235Z,55.13
2023-05-03T19:57:07.928Z,55.05
2023-05-03T19:59:53.513Z,54.63
2023-05-03T20:02:38.812Z,54.63
2023-05-03T20:05:24.461Z,55.01
2023-05-03T20:08:09.646Z,55.13
2023-05-03T20:10:55.287Z,55.51
2023-05-03T20:13:40.828Z,55.47
2023-05-03T20:16:26.127Z,56.46
2023-05-03T20:19:11.552Z,56.73
2023-05-03T20:21:56.938Z,56.78
2023-05-03T20:24:42.322Z,57.05
2023-05-03T20:27:27.973Z,57.14
2023-05-03T20:30:13.639Z,56.92
2023-05-03T20:32:59.342Z,56.71
2023-05-03T20:35:44.887Z,56.33
2023-05-03T20:38:29.986Z,56.53
2023-05-03T20:41:15.408Z,56.82
2023-05-03T20:44:00.830Z,56.76
2023-05-03T20:46:45.992Z,57.77
2023-05-03T20:49:31.931Z,58.32
2023-05-03T20:52:17.167Z,58.70
2023-05-03T20:55:02.489Z,58.57
2023-05-03T20:57:47.979Z,59.26
2023-05-03T21:00:33.137Z,59.11
2023-05-03T21:03:19.377Z,60.50
2023-05-03T21:06:04.829Z,60.34
2023-05-03T21:08:49.909Z,60.61
2023-05-03T21:11:35.264Z,60.57
2023-05-03T21:14:20.485Z,60.51
2023-05-03T21:17:06.068Z,59.81
2023-05-03T21:19:51.348Z,59.30
2023-05-03T21:22:36.599Z,59.42
2023-05-03T21:25:21.799Z,60.19
2023-05-03T21:28:07.054Z,60.81
2023-05-03T21:30:54.385Z,60.99
2023-05-03T21:33:39.785Z,61.43
2023-05-03T21:36:25.204Z,61.90
2023-05-03T21:39:10.679Z,62.11
2023-05-03T21:41:55.813Z,62.14
2023-05-03T21:44:42.034Z,62.61
2023-05-03T21:47:27.902Z,63.01
2023-05-03T21:50:13.856Z,63.60
2023-05-03T21:52:59.337Z,63.50
2023-05-03T21:55:46.006Z,63.40
2023-05-03T21:58:31.460Z,63.98
2023-05-03T22:01:16.979Z,64.04
2023-05-03T22:04:02.292Z,63.92
2023-05-03T22:06:47.611Z,63.32
2023-05-03T22:09:33.152Z,62.54
2023-05-03T22:15:07.016Z,63.13
2023-05-03T22:17:52.346Z,62.89
2023-05-03T22:20:37.762Z,63.08
2023-05-03T22:23:22.988Z,62.80
2023-05-03T22:26:08.382Z,62.08
2023-05-03T22:28:54.176Z,62.39
2023-05-03T22:31:39.558Z,62.19
2023-05-03T22:34:24.970Z,61.64
2023-05-03T22:37:11.218Z,61.91
2023-05-03T22:39:56.671Z,61.49
2023-05-03T22:42:41.900Z,60.99
2023-05-03T22:45:27.978Z,61.29
2023-05-03T22:48:13.387Z,61.96
2023-05-03T22:50:59.011Z,62.12
2023-05-03T22:53:45.048Z,62.91
2023-05-03T22:56:30.352Z,63.13
2023-05-03T22:59:15.756Z,62.70
2023-05-03T23:02:01.030Z,62.28
2023-05-03T23:04:46.190Z,62.98
2023-05-03T23:07:31.446Z,62.94
2023-05-03T23:10:16.830Z,63.00
2023-05-03T23:13:02.160Z,62.67
2023-05-03T23:15:47.477Z,62.93
2023-05-03T23:18:32.882Z,62.33
2023-05-03T23:21:19.718Z,62.71
2023-05-03T23:24:05.181Z,62.86
2023-05-03T23:26:50.602Z,63.63
2023-05-03T23:29:36.558Z,62.96
2023-05-03T23:32:22.166Z,63.32
2023-05-03T23:35:08.361Z,63.54
2023-05-03T23:37:53.875Z,63.95
2023-05-03T23:40:39.139Z,63.41
2023-05-03T23:43:24.260Z,63.79
2023-05-03T23:46:10.358Z,64.02
2023-05-03T23:48:55.300Z,64.12
2023-05-03T23:51:41.137Z,64.46
2023-05-03T23:54:26.368Z,64.59
2023-05-03T23:57:11.826Z,65.91
2023-05-03T23:59:57.595Z,68.52
